Time;durP1;ratioP1;P1;durP2;ratioP2;P2;SDS_P1;SDS_P2;PMS_P1;PMS_P2;Temp;Humidity;BMP_temperature;BMP_pressure;BME280_temperature;BME280_humidity;BME280_pressure;Samples;Min_cycle;Max_cycle;Signal;HPM_P1;HPM_P2
2022/02/01 00:01:44;;;;;;;3.90;1.60;;;7.50;70.00;;;;;;4985216;28;20446;-44
2022/02/01 00:04:21;;;;;;;2.27;1.93;;;7.70;69.80;;;;;;4985820;28;20442;-44
2022/02/01 00:07:00;;;;;;;1.43;1.30;;;7.70;68.90;;;;;;4986012;28;20463;-43
2022/02/01 00:09:35;;;;;;;1.83;1.47;;;7.70;68.70;;;;;;4989820;28;20446;-44
2022/02/01 00:12:14;;;;;;;3.20;1.73;;;7.70;68.30;;;;;;4988353;28;20481;-45
2022/02/01 00:17:37;;;;;;;2.13;1.57;;;7.80;67.60;;;;;;4988824;28;20477;-45
2022/02/01 00:41:13;;;;;;;1.33;1.23;;;8.00;68.00;;;;;;4987617;28;20454;-44
2022/02/01 00:43:38;;;;;;;2.37;1.57;;;8.10;67.40;;;;;;4987827;28;20563;-45
2022/02/01 00:46:04;;;;;;;1.93;1.13;;;8.10;67.20;;;;;;4984207;28;20458;-44
2022/02/01 00:48:30;;;;;;;3.30;1.77;;;8.20;67.00;;;;;;4987938;28;20670;-44
2022/02/01 00:50:56;;;;;;;1.67;1.40;;;8.30;66.80;;;;;;4987870;28;20252;-44
2022/02/01 00:53:27;;;;;;;2.07;1.37;;;8.10;66.60;;;;;;4986912;28;20230;-44
2022/02/01 00:55:54;;;;;;;2.50;1.40;;;7.80;66.90;;;;;;4979707;28;20449;-45
2022/02/01 00:58:20;;;;;;;2.47;1.43;;;7.60;67.80;;;;;;4986012;28;20516;-44
2022/02/01 01:00:46;;;;;;;3.30;1.50;;;7.50;68.90;;;;;;4984603;28;20457;-46
2022/02/01 01:03:12;;;;;;;2.10;1.03;;;7.20;69.60;;;;;;4981520;28;20467;-44
2022/02/01 01:05:37;;;;;;;1.10;1.00;;;7.20;69.80;;;;;;4985464;28;20198;-45
2022/02/01 01:08:03;;;;;;;2.93;1.20;;;7.30;69.80;;;;;;4986490;28;20277;-45
2022/02/01 01:10:28;;;;;;;1.80;1.00;;;7.40;69.80;;;;;;4986296;28;20194;-45
2022/02/01 01:13:38;;;;;;;1.60;1.00;;;7.40;70.00;;;;;;4987060;28;20686;-45
2022/02/01 01:15:47;;;;;;;1.50;1.00;;;7.50;69.60;;;;;;4987561;28;20233;-47
2022/02/01 01:45:21;;;;;;;6.23;2.00;;;8.20;67.00;;;;;;4989503;28;20476;-44
2022/02/01 01:53:22;;;;;;;12.73;1.70;;;8.40;66.50;;;;;;4988770;28;20456;-44
2022/02/01 01:55:52;;;;;;;7.73;2.60;;;8.30;66.70;;;;;;4991652;28;20457;-44
2022/02/01 01:58:20;;;;;;;3.33;1.50;;;8.40;66.80;;;;;;4987882;28;20496;-44
2022/02/01 02:03:14;;;;;;;4.70;2.20;;;8.10;67.10;;;;;;4990042;28;20452;-44
2022/02/01 02:05:40;;;;;;;9.00;3.03;;;8.10;67.60;;;;;;4990687;28;20446;-44
2022/02/01 02:08:06;;;;;;;5.30;1.90;;;8.20;67.60;;;;;;4990991;28;20277;-45
2022/02/01 02:10:37;;;;;;;6.50;2.30;;;8.20;67.50;;;;;;4991617;28;20217;-45
2022/02/01 02:15:58;;;;;;;4.73;1.80;;;8.20;67.30;;;;;;4989891;28;20491;-44
2022/02/01 02:18:26;;;;;;;6.50;1.87;;;8.20;67.40;;;;;;4988625;28;20489;-45
2022/02/01 02:20:53;;;;;;;7.97;2.00;;;8.20;67.70;;;;;;4990385;28;20461;-44
2022/02/01 02:23:20;;;;;;;5.17;2.03;;;8.30;67.40;;;;;;4988197;28;20481;-44
2022/02/01 02:25:46;;;;;;;4.20;2.23;;;8.30;67.10;;;;;;4991206;28;20834;-44
2022/02/01 02:28:14;;;;;;;4.70;1.87;;;8.30;67.20;;;;;;4985760;28;20454;-44
2022/02/01 02:30:41;;;;;;;4.00;2.20;;;8.30;66.70;;;;;;4987941;28;20915;-44
2022/02/01 02:33:11;;;;;;;7.87;1.97;;;8.30;66.70;;;;;;4990720;28;20525;-44
2022/02/01 02:35:47;;;;;;;5.73;1.97;;;8.30;66.60;;;;;;4988440;28;20590;-44
2022/02/01 02:38:18;;;;;;;4.13;1.63;;;8.20;67.00;;;;;;4987712;28;20492;-43
2022/02/01 02:46:24;;;;;;;6.57;2.70;;;8.20;66.60;;;;;;4984713;28;20503;-44
2022/02/01 02:48:50;;;;;;;7.77;2.10;;;8.30;66.50;;;;;;4989875;28;20451;-44
2022/02/01 02:51:16;;;;;;;4.70;1.90;;;8.40;66.40;;;;;;4984662;28;20445;-44
2022/02/01 02:53:42;;;;;;;9.37;2.13;;;8.30;65.90;;;;;;4988424;28;20461;-45
2022/02/01 02:56:08;;;;;;;3.00;1.83;;;8.20;66.00;;;;;;4987371;28;20195;-44
2022/02/01 02:58:34;;;;;;;7.43;3.07;;;8.10;66.50;;;;;;4986367;28;20639;-44
2022/02/01 03:00:59;;;;;;;8.40;2.17;;;8.10;66.60;;;;;;4987259;28;20503;-45
2022/02/01 03:03:25;;;;;;;7.57;2.00;;;8.00;66.80;;;;;;4985403;28;20232;-45
2022/02/01 03:05:51;;;;;;;5.60;2.50;;;8.20;66.40;;;;;;4990255;28;20492;-45
2022/02/01 03:08:16;;;;;;;8.73;2.23;;;8.00;66.30;;;;;;4986564;28;20206;-44
2022/02/01 03:10:44;;;;;;;8.10;2.93;;;7.80;66.40;;;;;;4989741;28;20187;-44
2022/02/01 03:13:22;;;;;;;7.67;2.47;;;7.70;67.00;;;;;;4986542;28;20602;-44
2022/02/01 03:16:08;;;;;;;3.60;1.70;;;7.50;67.70;;;;;;4989909;28;20452;-44
2022/02/01 03:21:17;;;;;;;12.30;2.80;;;7.60;68.30;;;;;;4986718;28;20508;-44
2022/02/01 03:23:43;;;;;;;6.87;2.83;;;7.70;67.70;;;;;;4989390;28;20445;-45
2022/02/01 03:26:08;;;;;;;9.07;2.30;;;7.90;67.00;;;;;;4984842;28;20191;-46
2022/02/01 03:28:34;;;;;;;8.77;2.63;;;8.00;66.80;;;;;;4988834;28;20205;-44
2022/02/01 03:31:00;;;;;;;7.63;2.83;;;7.90;66.50;;;;;;4987875;28;20239;-45
2022/02/01 03:33:25;;;;;;;11.73;2.67;;;8.00;66.50;;;;;;4986759;28;20251;-45
2022/02/01 03:35:51;;;;;;;18.87;2.53;;;8.10;66.30;;;;;;4979699;28;20196;-45
2022/02/01 03:38:16;;;;;;;5.40;2.20;;;7.90;65.70;;;;;;4987952;28;20226;-47
2022/02/01 03:40:42;;;;;;;7.07;2.60;;;7.80;66.40;;;;;;4986674;28;20587;-44
2022/02/01 03:43:08;;;;;;;13.40;2.70;;;7.80;66.10;;;;;;4990310;28;20198;-47
2022/02/01 03:45:33;;;;;;;11.70;3.00;;;7.80;66.10;;;;;;4981576;28;20668;-45
2022/02/01 03:47:59;;;;;;;17.27;3.23;;;8.00;65.80;;;;;;4988058;28;20642;-48
2022/02/01 03:50:24;;;;;;;11.13;2.33;;;7.80;65.30;;;;;;4984917;28;20774;-45
2022/02/01 03:52:50;;;;;;;11.07;3.17;;;7.80;65.80;;;;;;4987237;28;20325;-44
2022/02/01 03:55:15;;;;;;;16.43;3.00;;;7.80;65.70;;;;;;4980986;28;20194;-44
2022/02/01 03:57:41;;;;;;;10.07;2.80;;;7.90;65.40;;;;;;4984900;28;20591;-45
2022/02/01 04:00:08;;;;;;;11.27;2.53;;;8.00;65.50;;;;;;4988589;28;20306;-44
2022/02/01 04:02:33;;;;;;;12.27;3.87;;;8.00;65.20;;;;;;4989478;28;20202;-44
2022/02/01 04:04:59;;;;;;;11.63;3.20;;;7.90;64.40;;;;;;4989826;28;20445;-44
2022/02/01 04:07:25;;;;;;;8.17;3.20;;;7.90;64.70;;;;;;4985015;28;20190;-46
2022/02/01 04:09:51;;;;;;;11.20;2.87;;;8.10;64.30;;;;;;4984599;28;20222;-48
2022/02/01 04:12:17;;;;;;;8.70;2.30;;;8.10;63.40;;;;;;4988537;28;20242;-44
2022/02/01 04:14:44;;;;;;;12.17;2.80;;;8.00;62.50;;;;;;4990506;28;20444;-44
2022/02/01 04:17:11;;;;;;;16.50;3.10;;;7.90;62.70;;;;;;4979740;28;20301;-44
2022/02/01 04:19:37;;;;;;;19.90;3.40;;;7.90;62.40;;;;;;4987054;28;20545;-45
2022/02/01 04:22:04;;;;;;;16.07;3.70;;;7.70;62.70;;;;;;4981880;28;20560;-45
2022/02/01 04:24:35;;;;;;;12.33;3.43;;;7.70;63.40;;;;;;4988630;28;20489;-45
2022/02/01 04:27:01;;;;;;;10.63;3.07;;;7.70;62.80;;;;;;4986025;28;20844;-47
2022/02/01 04:29:28;;;;;;;11.13;3.40;;;8.00;62.30;;;;;;4987707;28;20481;-44
2022/02/01 04:31:53;;;;;;;8.67;4.00;;;8.00;61.40;;;;;;4984379;28;20548;-45
2022/02/01 04:34:19;;;;;;;7.80;2.50;;;8.10;61.00;;;;;;4987734;28;20663;-48
2022/02/01 04:36:45;;;;;;;11.10;3.20;;;8.30;60.60;;;;;;4986835;28;20202;-44
2022/02/01 04:39:11;;;;;;;15.00;3.43;;;8.20;60.40;;;;;;4988098;28;20485;-44
2022/02/01 04:41:37;;;;;;;16.67;2.83;;;8.20;61.00;;;;;;4984654;28;20298;-46
2022/02/01 04:44:02;;;;;;;6.60;2.77;;;8.30;60.50;;;;;;4985682;28;20809;-48
2022/02/01 04:46:29;;;;;;;10.33;2.47;;;8.20;60.50;;;;;;4987252;28;20237;-45
2022/02/01 04:49:01;;;;;;;9.30;2.27;;;8.00;60.50;;;;;;4987962;28;20198;-44
2022/02/01 04:51:27;;;;;;;9.03;2.00;;;8.10;60.30;;;;;;4989077;28;20791;-44
2022/02/01 04:53:53;;;;;;;11.90;2.87;;;8.00;59.60;;;;;;4988189;28;20437;-44
2022/02/01 04:56:19;;;;;;;6.20;2.23;;;8.20;59.50;;;;;;4985424;28;20448;-44
2022/02/01 04:58:45;;;;;;;13.30;2.93;;;8.00;59.00;;;;;;4983690;28;20230;-43
2022/02/01 05:01:14;;;;;;;14.03;2.93;;;8.10;58.40;;;;;;4990300;28;20910;-44
2022/02/01 05:03:40;;;;;;;11.33;2.17;;;7.90;57.80;;;;;;4986850;28;20190;-44
2022/02/01 05:06:07;;;;;;;6.07;2.03;;;7.90;57.70;;;;;;4990841;28;20952;-44
2022/02/01 05:08:33;;;;;;;13.10;3.00;;;7.90;57.50;;;;;;4987533;28;20441;-44
2022/02/01 05:10:59;;;;;;;16.27;3.07;;;8.00;57.50;;;;;;4991628;28;20472;-44
2022/02/01 05:16:04;;;;;;;9.03;2.60;;;8.00;57.00;;;;;;4991839;28;20453;-44
2022/02/01 05:18:37;;;;;;;10.60;3.00;;;7.70;56.70;;;;;;4991519;28;20881;-44
2022/02/01 05:21:20;;;;;;;14.33;2.37;;;7.50;57.40;;;;;;4989919;28;20452;-44
2022/02/01 05:23:46;;;;;;;13.33;2.10;;;7.50;57.10;;;;;;4989376;28;20862;-44
2022/02/01 05:26:12;;;;;;;9.70;2.70;;;7.60;57.00;;;;;;4992150;28;21094;-44
2022/02/01 05:28:37;;;;;;;14.00;2.10;;;7.60;57.00;;;;;;4989988;28;20441;-44
2022/02/01 05:31:04;;;;;;;11.53;2.53;;;7.70;57.00;;;;;;4988307;28;20446;-43
2022/02/01 05:33:34;;;;;;;8.10;2.57;;;7.70;57.10;;;;;;4986331;28;20202;-44
2022/02/01 05:36:02;;;;;;;12.97;2.20;;;7.90;57.40;;;;;;4992042;28;20499;-44
2022/02/01 05:38:28;;;;;;;10.70;2.47;;;7.90;57.40;;;;;;4990593;28;20536;-44
2022/02/01 05:40:54;;;;;;;10.40;3.10;;;8.10;57.50;;;;;;4992724;28;20477;-44
2022/02/01 05:43:24;;;;;;;9.53;2.60;;;8.10;57.70;;;;;;4991360;28;20806;-44
2022/02/01 05:45:51;;;;;;;10.83;2.53;;;8.10;58.10;;;;;;4990662;28;20441;-44
2022/02/01 05:48:18;;;;;;;7.33;2.23;;;8.00;57.80;;;;;;4992371;28;20445;-44
2022/02/01 05:50:48;;;;;;;8.27;2.43;;;7.70;58.20;;;;;;4990984;28;20609;-44
2022/02/01 05:53:15;;;;;;;8.80;2.07;;;7.70;57.90;;;;;;4988568;28;20461;-44
2022/02/01 05:55:41;;;;;;;4.37;1.77;;;7.70;58.10;;;;;;4990354;28;20450;-45
2022/02/01 05:58:06;;;;;;;5.83;1.87;;;7.60;57.50;;;;;;4986581;28;20516;-44
2022/02/01 06:00:32;;;;;;;16.57;3.73;;;7.60;56.90;;;;;;4983525;28;20450;-44
2022/02/01 06:02:59;;;;;;;10.47;2.20;;;7.60;57.20;;;;;;4989566;28;20199;-44
2022/02/01 06:05:25;;;;;;;10.80;3.53;;;7.70;57.00;;;;;;4989673;28;20573;-44
2022/02/01 06:07:50;;;;;;;8.43;2.23;;;7.90;56.70;;;;;;4989818;28;20557;-45
2022/02/01 06:10:16;;;;;;;6.10;1.97;;;7.90;56.40;;;;;;4991394;28;20228;-44
2022/02/01 06:12:48;;;;;;;8.97;2.80;;;7.80;56.60;;;;;;4989220;28;20234;-44
2022/02/01 06:15:16;;;;;;;7.03;1.87;;;7.80;57.20;;;;;;4994428;28;20199;-45
2022/02/01 06:17:42;;;;;;;10.00;2.50;;;7.80;57.60;;;;;;4991844;28;20960;-44
2022/02/01 06:20:10;;;;;;;11.13;2.40;;;7.80;58.10;;;;;;4987245;28;20522;-43
2022/02/01 06:22:36;;;;;;;7.93;2.87;;;7.80;58.30;;;;;;4992054;28;20430;-43
2022/02/01 06:25:02;;;;;;;8.67;1.93;;;7.80;58.10;;;;;;4990302;28;20445;-45
2022/02/01 06:27:28;;;;;;;7.10;1.83;;;7.70;58.20;;;;;;4992758;28;20265;-44
2022/02/01 06:29:54;;;;;;;5.93;2.50;;;7.80;58.10;;;;;;4991215;28;20942;-44
2022/02/01 06:32:20;;;;;;;10.23;1.97;;;7.60;57.40;;;;;;4987588;28;20233;-44
2022/02/01 06:34:46;;;;;;;11.83;3.17;;;7.50;57.90;;;;;;4989300;28;20441;-45
2022/02/01 06:37:12;;;;;;;9.83;3.30;;;7.60;57.80;;;;;;4990962;28;20797;-44
2022/02/01 06:39:37;;;;;;;6.60;2.57;;;7.60;58.40;;;;;;4990036;28;20283;-45
2022/02/01 06:42:04;;;;;;;8.40;2.70;;;7.60;57.70;;;;;;4990564;28;20269;-44
2022/02/01 06:44:30;;;;;;;7.10;2.40;;;7.70;57.40;;;;;;4991585;28;20240;-44
2022/02/01 06:46:56;;;;;;;8.13;2.00;;;7.50;57.30;;;;;;4994436;28;20441;-44
2022/02/01 06:49:22;;;;;;;4.87;1.87;;;7.60;57.80;;;;;;4997607;28;20433;-44
2022/02/01 06:51:48;;;;;;;11.80;2.50;;;7.40;57.50;;;;;;4993819;28;20441;-44
2022/02/01 06:54:14;;;;;;;10.27;2.23;;;7.20;57.70;;;;;;4991273;28;20446;-44
2022/02/01 06:56:39;;;;;;;11.37;3.10;;;7.20;58.20;;;;;;4992163;28;20230;-44
2022/02/01 06:59:06;;;;;;;8.43;2.33;;;7.10;58.30;;;;;;4991802;28;20281;-44
2022/02/01 07:01:32;;;;;;;9.13;1.90;;;7.40;58.30;;;;;;4996248;28;20202;-44
2022/02/01 07:03:59;;;;;;;9.47;2.50;;;7.50;57.90;;;;;;4990582;28;20444;-46
2022/02/01 07:06:26;;;;;;;12.73;2.70;;;7.40;57.40;;;;;;4990250;28;20441;-44
2022/02/01 07:08:52;;;;;;;21.00;3.50;;;7.40;57.70;;;;;;4996458;28;20456;-43
2022/02/01 07:11:19;;;;;;;4.63;2.07;;;7.50;57.60;;;;;;4992868;28;20486;-44
2022/02/01 07:13:46;;;;;;;12.23;4.80;;;7.50;57.60;;;;;;4991270;28;20812;-44
2022/02/01 07:16:13;;;;;;;7.30;2.20;;;7.60;57.20;;;;;;4990475;28;20445;-43
2022/02/01 07:18:38;;;;;;;11.93;2.47;;;7.50;56.90;;;;;;4995694;28;21008;-44
2022/02/01 07:21:04;;;;;;;7.90;2.50;;;7.60;57.20;;;;;;4997192;28;20448;-44
2022/02/01 07:23:31;;;;;;;11.47;2.83;;;7.60;57.20;;;;;;4994065;28;20245;-44
2022/02/01 07:25:57;;;;;;;13.03;2.90;;;7.80;57.00;;;;;;4989980;28;20533;-45
2022/02/01 07:28:28;;;;;;;3.80;1.60;;;7.80;56.60;;;;;;4984801;28;20517;-44
2022/02/01 07:30:55;;;;;;;10.07;2.80;;;7.60;56.40;;;;;;4990814;28;20500;-46
2022/02/01 07:33:22;;;;;;;10.83;3.07;;;7.50;56.60;;;;;;4981407;28;20521;-43
2022/02/01 07:35:49;;;;;;;10.67;1.90;;;7.80;56.60;;;;;;4985273;28;20473;-45
2022/02/01 07:38:18;;;;;;;7.90;2.27;;;8.00;56.30;;;;;;4983599;28;20497;-44
2022/02/01 07:40:45;;;;;;;6.80;2.40;;;8.00;56.10;;;;;;4982262;28;20448;-44
2022/02/01 07:43:12;;;;;;;13.67;7.27;;;8.00;55.40;;;;;;4989399;28;20438;-44
2022/02/01 07:45:40;;;;;;;13.43;6.70;;;8.10;55.40;;;;;;4988755;28;20526;-45
2022/02/01 07:48:06;;;;;;;10.83;2.77;;;8.00;54.70;;;;;;4980677;28;20856;-44
2022/02/01 07:50:32;;;;;;;10.50;2.40;;;7.90;54.60;;;;;;4991258;28;20437;-43
2022/02/01 07:52:59;;;;;;;9.70;2.33;;;8.10;54.60;;;;;;4991509;28;20195;-44
2022/02/01 07:55:26;;;;;;;12.40;2.00;;;8.00;54.40;;;;;;4991651;28;20449;-44
2022/02/01 07:57:52;;;;;;;7.73;2.37;;;7.80;54.70;;;;;;4982649;28;20969;-44
2022/02/01 08:00:17;;;;;;;7.77;2.40;;;7.80;54.80;;;;;;4987013;28;20430;-44
2022/02/01 08:02:43;;;;;;;8.20;2.00;;;8.10;54.60;;;;;;4991771;28;20198;-44
2022/02/01 08:05:10;;;;;;;2.60;1.30;;;8.10;54.30;;;;;;4984207;28;20662;-44
2022/02/01 08:07:36;;;;;;;4.97;2.60;;;8.30;53.90;;;;;;4990221;28;20472;-43
2022/02/01 08:10:04;;;;;;;10.30;2.33;;;8.20;53.50;;;;;;4989678;28;20437;-44
2022/02/01 08:20:05;;;;;;;9.67;2.33;;;8.40;53.70;;;;;;4988949;28;20452;-44
2022/02/01 08:23:01;;;;;;;5.70;2.37;;;8.30;53.70;;;;;;4991707;28;20281;-43
2022/02/01 08:25:25;;;;;;;12.50;2.63;;;8.10;53.40;;;;;;4991215;28;20434;-44
2022/02/01 08:27:55;;;;;;;6.10;2.00;;;8.30;53.80;;;;;;4988745;28;20449;-45
2022/02/01 08:30:22;;;;;;;3.90;1.80;;;8.40;53.90;;;;;;4990198;28;20561;-44
2022/02/01 08:32:49;;;;;;;4.13;1.90;;;8.50;53.90;;;;;;4991229;28;20437;-44
2022/02/01 08:35:15;;;;;;;11.73;2.77;;;8.40;53.80;;;;;;4985175;28;20441;-44
2022/02/01 08:37:41;;;;;;;11.00;2.10;;;8.40;53.60;;;;;;4989540;28;20489;-44
2022/02/01 08:40:08;;;;;;;6.33;2.30;;;8.60;53.60;;;;;;4987834;28;20503;-44
2022/02/01 08:42:35;;;;;;;5.13;2.07;;;8.50;52.90;;;;;;4986904;28;20340;-45
2022/02/01 08:45:02;;;;;;;7.40;2.20;;;8.50;53.30;;;;;;4985763;28;20496;-45
2022/02/01 08:47:28;;;;;;;6.90;1.70;;;8.50;53.40;;;;;;5009429;28;20799;-45
2022/02/01 08:49:54;;;;;;;11.43;1.63;;;8.50;53.50;;;;;;4989929;28;20456;-44
2022/02/01 08:55:06;;;;;;;3.40;1.90;;;8.30;53.70;;;;;;4992930;28;20696;-45
2022/02/01 08:57:32;;;;;;;8.20;1.70;;;8.40;53.80;;;;;;4982419;28;20571;-44
2022/02/01 09:00:07;;;;;;;10.70;2.50;;;8.30;53.70;;;;;;4991111;28;20521;-44
2022/02/01 09:02:33;;;;;;;9.43;2.37;;;8.20;53.90;;;;;;4982972;28;20722;-44
2022/02/01 09:04:59;;;;;;;6.40;1.97;;;8.10;54.10;;;;;;4978090;28;20952;-44
2022/02/01 09:07:25;;;;;;;7.30;2.60;;;8.00;54.60;;;;;;4993678;28;20444;-44
2022/02/01 09:09:51;;;;;;;7.00;2.50;;;8.10;54.30;;;;;;4990879;28;20449;-44
2022/02/01 09:12:18;;;;;;;6.30;2.20;;;8.30;54.30;;;;;;4987536;28;20858;-44
2022/02/01 09:14:46;;;;;;;12.07;2.63;;;8.40;54.40;;;;;;4986620;28;20673;-45
2022/02/01 09:17:13;;;;;;;7.23;2.73;;;8.60;54.30;;;;;;4983824;28;20537;-45
2022/02/01 09:19:41;;;;;;;12.50;2.40;;;8.50;54.40;;;;;;4987926;28;20445;-44
2022/02/01 09:22:07;;;;;;;5.83;2.27;;;8.50;54.40;;;;;;4987474;28;20445;-47
2022/02/01 09:24:33;;;;;;;10.73;3.37;;;8.40;54.50;;;;;;4995818;28;20434;-47
2022/02/01 09:26:59;;;;;;;8.40;1.90;;;8.30;54.40;;;;;;4995778;28;20437;-47
2022/02/01 09:29:25;;;;;;;5.10;2.33;;;8.30;54.80;;;;;;4990979;28;20437;-48
2022/02/01 09:31:53;;;;;;;10.60;2.33;;;8.50;54.50;;;;;;4980190;28;20442;-45
2022/02/01 09:34:19;;;;;;;5.70;2.27;;;8.40;54.40;;;;;;4988155;28;20804;-45
2022/02/01 09:36:46;;;;;;;6.27;2.33;;;8.40;54.70;;;;;;4989706;28;20445;-44
2022/02/01 09:39:11;;;;;;;12.00;2.83;;;8.50;54.60;;;;;;4988054;28;20573;-45
2022/02/01 09:41:39;;;;;;;8.53;2.40;;;8.40;54.70;;;;;;4988250;28;20871;-45
2022/02/01 09:44:05;;;;;;;6.63;1.50;;;8.50;55.00;;;;;;4980690;28;20653;-45
2022/02/01 09:46:31;;;;;;;9.13;2.67;;;8.60;55.00;;;;;;5001676;28;20441;-45
2022/02/01 09:48:58;;;;;;;8.87;2.20;;;8.50;54.80;;;;;;4984865;28;20496;-45
2022/02/01 09:51:24;;;;;;;6.80;2.10;;;8.50;55.10;;;;;;4990883;28;20198;-44
2022/02/01 09:53:50;;;;;;;7.50;2.10;;;8.50;54.40;;;;;;4993694;28;20433;-45
2022/02/01 09:56:17;;;;;;;4.50;2.13;;;8.60;54.80;;;;;;4985986;28;20437;-45
2022/02/01 09:58:45;;;;;;;13.93;2.30;;;8.60;55.10;;;;;;4991361;28;20245;-46
2022/02/01 10:01:19;;;;;;;6.90;2.20;;;8.80;55.00;;;;;;4987642;28;20431;-44
2022/02/01 10:03:46;;;;;;;7.30;2.10;;;8.70;54.50;;;;;;4993157;28;20441;-45
2022/02/01 10:06:17;;;;;;;10.63;2.27;;;8.70;54.30;;;;;;4998047;28;20858;-45
2022/02/01 10:08:46;;;;;;;9.20;2.13;;;8.70;54.60;;;;;;4995551;28;20469;-44
2022/02/01 10:11:13;;;;;;;9.60;2.70;;;8.90;54.60;;;;;;4991980;28;20477;-45
2022/02/01 10:13:41;;;;;;;7.13;2.07;;;9.00;53.90;;;;;;4987711;28;20442;-45
2022/02/01 10:16:26;;;;;;;8.67;1.90;;;8.90;54.00;;;;;;4986229;28;20764;-46
2022/02/01 10:18:51;;;;;;;6.90;1.90;;;8.90;54.10;;;;;;4985405;28;20488;-46
2022/02/01 10:21:17;;;;;;;8.63;2.00;;;9.10;54.00;;;;;;4998589;28;20803;-44
2022/02/01 10:23:45;;;;;;;6.53;1.83;;;9.20;53.40;;;;;;4990523;28;20202;-46
2022/02/01 10:26:13;;;;;;;10.63;2.60;;;9.10;53.10;;;;;;4985558;28;20256;-45
2022/02/01 10:31:24;;;;;;;5.30;1.43;;;9.20;53.10;;;;;;4991501;28;20510;-45
2022/02/01 10:36:18;;;;;;;4.33;1.77;;;9.20;53.20;;;;;;4992296;28;21091;-44
2022/02/01 10:38:44;;;;;;;7.83;1.60;;;9.40;52.80;;;;;;4990496;28;20493;-45
2022/02/01 10:41:14;;;;;;;2.67;1.60;;;9.50;52.90;;;;;;4990189;28;20891;-45
2022/02/01 10:43:41;;;;;;;6.13;2.30;;;9.50;51.60;;;;;;4993587;28;20867;-44
2022/02/01 10:46:09;;;;;;;5.60;1.40;;;9.20;51.50;;;;;;4991867;28;20440;-45
2022/02/01 10:48:36;;;;;;;4.13;1.83;;;8.90;52.10;;;;;;4991812;28;20448;-46
2022/02/01 10:51:18;;;;;;;6.90;1.67;;;8.90;51.90;;;;;;4992199;28;20469;-46
2022/02/01 10:53:44;;;;;;;5.20;1.47;;;8.80;52.20;;;;;;4985594;28;20438;-45
2022/02/01 10:56:17;;;;;;;7.47;3.07;;;8.90;52.70;;;;;;4992300;28;20442;-46
2022/02/01 10:58:47;;;;;;;3.77;2.80;;;9.00;52.80;;;;;;5001595;28;20481;-47
2022/02/01 11:01:14;;;;;;;19.80;11.20;;;9.00;53.10;;;;;;4989832;28;20500;-45
2022/02/01 11:03:45;;;;;;;6.20;2.87;;;8.90;53.20;;;;;;4990379;28;20430;-45
2022/02/01 11:06:11;;;;;;;3.27;2.33;;;8.90;53.30;;;;;;4987635;28;20440;-47
2022/02/01 11:08:39;;;;;;;6.30;2.27;;;8.70;53.40;;;;;;5002203;28;20525;-44
2022/02/01 11:11:06;;;;;;;4.20;2.10;;;8.60;53.50;;;;;;4990977;28;21082;-45
2022/02/01 11:13:39;;;;;;;7.20;1.73;;;8.40;53.40;;;;;;4992879;28;20492;-45
2022/02/01 11:16:07;;;;;;;11.40;2.07;;;8.50;54.00;;;;;;4983273;28;20810;-44
2022/02/01 11:18:33;;;;;;;9.50;1.60;;;8.60;53.70;;;;;;4993838;28;20492;-44
2022/02/01 11:21:10;;;;;;;5.73;1.57;;;8.90;52.90;;;;;;5003555;28;20442;-44
2022/02/01 11:24:12;;;;;;;5.20;1.80;;;8.90;51.90;;;;;;4991882;28;20504;-44
2022/02/01 11:26:36;;;;;;;8.30;2.00;;;8.80;51.20;;;;;;4990131;28;20486;-46
2022/02/01 11:31:51;;;;;;;6.47;1.87;;;9.00;51.70;;;;;;4986320;28;21031;-47
2022/02/01 11:34:31;;;;;;;3.13;1.37;;;8.90;51.80;;;;;;4992945;28;20422;-44
2022/02/01 11:37:00;;;;;;;6.43;1.53;;;8.90;51.80;;;;;;4982319;28;20672;-46
2022/02/01 11:39:26;;;;;;;14.17;2.10;;;8.70;52.70;;;;;;4988000;28;20481;-44
2022/02/01 11:41:53;;;;;;;6.43;1.83;;;8.50;52.60;;;;;;4991187;28;21225;-45
2022/02/01 11:44:34;;;;;;;4.97;1.80;;;8.40;52.90;;;;;;4988480;28;20429;-43
2022/02/01 11:47:04;;;;;;;3.40;1.57;;;8.20;53.30;;;;;;4991022;28;20460;-44
2022/02/01 11:49:30;;;;;;;2.77;1.70;;;8.20;54.00;;;;;;4990769;28;20434;-44
2022/02/01 11:52:14;;;;;;;10.90;2.17;;;8.40;54.90;;;;;;4989569;28;20526;-45
2022/02/01 11:54:42;;;;;;;5.30;1.60;;;8.30;54.10;;;;;;4990745;28;20449;-44
2022/02/01 11:57:26;;;;;;;5.50;1.87;;;8.10;54.30;;;;;;4988025;28;22479;-44
2022/02/01 12:00:03;;;;;;;3.83;1.57;;;8.20;54.60;;;;;;4989618;28;20437;-45
2022/02/01 12:02:39;;;;;;;6.70;2.00;;;8.30;54.20;;;;;;4991187;28;20929;-44
2022/02/01 12:05:15;;;;;;;3.90;1.87;;;8.20;54.50;;;;;;4986964;28;20457;-45
2022/02/01 12:08:13;;;;;;;2.93;2.20;;;8.10;54.50;;;;;;4974785;28;20538;-45
2022/02/01 12:10:40;;;;;;;5.33;1.87;;;8.10;55.00;;;;;;4986451;28;20465;-44
2022/02/01 12:13:07;;;;;;;3.47;1.37;;;7.80;54.80;;;;;;4983556;28;20492;-43
2022/02/01 12:15:35;;;;;;;2.07;1.83;;;7.60;54.90;;;;;;4988209;28;20965;-44
2022/02/01 12:18:27;;;;;;;2.83;1.37;;;7.70;55.60;;;;;;4984285;28;20493;-45
2022/02/01 12:21:26;;;;;;;5.60;2.10;;;7.60;54.90;;;;;;4987651;28;20454;-44
2022/02/01 12:23:54;;;;;;;6.73;2.07;;;7.60;55.30;;;;;;4988080;28;20445;-46
2022/02/01 12:26:32;;;;;;;6.20;2.43;;;7.40;55.30;;;;;;4980982;28;20913;-43
2022/02/01 12:29:00;;;;;;;5.30;2.30;;;7.70;56.10;;;;;;4986523;28;20445;-45
2022/02/01 12:31:27;;;;;;;7.43;1.83;;;7.70;55.80;;;;;;4987602;28;20929;-44
2022/02/01 12:33:56;;;;;;;4.60;1.87;;;7.60;56.10;;;;;;4989839;28;20999;-43
2022/02/01 12:36:30;;;;;;;5.80;2.00;;;7.70;55.70;;;;;;4988887;28;20438;-44
2022/02/01 12:39:03;;;;;;;4.30;2.30;;;7.60;56.00;;;;;;4991067;28;20493;-44
2022/02/01 12:41:42;;;;;;;8.07;3.30;;;7.60;55.80;;;;;;4990381;28;20437;-43
2022/02/01 12:46:53;;;;;;;3.60;2.20;;;7.60;55.40;;;;;;4988909;28;20437;-44
2022/02/01 12:49:41;;;;;;;2.17;1.40;;;7.70;55.30;;;;;;4989731;28;20642;-44
2022/02/01 12:52:29;;;;;;;8.67;1.63;;;7.80;55.10;;;;;;4994849;28;21044;-45
2022/02/01 12:55:05;;;;;;;2.10;1.20;;;7.90;54.90;;;;;;4990177;28;20438;-45
2022/02/01 12:57:32;;;;;;;5.10;1.43;;;7.90;54.80;;;;;;4988105;28;21040;-46
2022/02/01 13:00:03;;;;;;;2.90;1.13;;;7.70;54.80;;;;;;4989702;28;20438;-45
2022/02/01 13:02:33;;;;;;;3.87;1.53;;;7.40;55.30;;;;;;4983851;28;20454;-44
2022/02/01 13:05:06;;;;;;;1.83;1.57;;;7.40;55.70;;;;;;4989055;28;20953;-46
2022/02/01 13:16:39;;;;;;;4.67;1.40;;;7.80;55.80;;;;;;4988899;28;20473;-44
2022/02/01 13:21:20;;;;;;;3.37;1.63;;;7.50;56.10;;;;;;4990719;28;20441;-44
2022/02/01 13:23:55;;;;;;;1.50;1.30;;;7.40;56.40;;;;;;4992128;28;20941;-44
2022/02/01 13:26:25;;;;;;;2.93;1.53;;;7.30;56.80;;;;;;4990147;28;20829;-45
2022/02/01 13:29:05;;;;;;;1.70;1.60;;;7.30;56.80;;;;;;4993233;28;20944;-45
2022/02/01 13:31:36;;;;;;;3.17;1.40;;;7.50;56.70;;;;;;4991987;28;21005;-45
2022/02/01 13:34:04;;;;;;;2.03;1.60;;;7.60;56.80;;;;;;5007012;28;20833;-42
2022/02/01 13:36:32;;;;;;;2.30;1.13;;;7.40;56.80;;;;;;5003575;28;20441;-43
2022/02/01 13:39:01;;;;;;;2.17;0.97;;;7.40;56.80;;;;;;4985123;28;20487;-43
2022/02/01 13:41:30;;;;;;;4.53;1.43;;;7.30;56.90;;;;;;4992770;28;20863;-42
2022/02/01 13:43:58;;;;;;;3.50;1.83;;;7.10;57.20;;;;;;4986695;28;20442;-44
2022/02/01 13:46:30;;;;;;;2.40;1.20;;;7.20;57.30;;;;;;4987775;28;20444;-42
2022/02/01 13:49:07;;;;;;;2.20;1.77;;;7.30;57.40;;;;;;4989733;28;20484;-43
2022/02/01 13:51:48;;;;;;;3.57;1.70;;;7.50;57.20;;;;;;4993346;28;20487;-43
2022/02/01 13:54:14;;;;;;;4.87;3.33;;;7.60;56.70;;;;;;4993525;28;20488;-43
2022/02/01 13:56:46;;;;;;;2.50;1.60;;;7.30;56.50;;;;;;4992459;28;20929;-43
2022/02/01 13:59:17;;;;;;;3.17;1.90;;;7.20;56.70;;;;;;4989282;28;20927;-43
2022/02/01 14:01:45;;;;;;;5.10;2.10;;;7.10;56.80;;;;;;4992838;28;20426;-45
2022/02/01 14:04:24;;;;;;;5.87;1.97;;;7.10;56.90;;;;;;4993675;28;20788;-46
2022/02/01 14:23:49;;;;;;;7.30;1.90;;;7.20;59.50;;;;;;4992226;28;20445;-42
2022/02/01 14:28:30;;;;;;;4.23;1.73;;;7.10;59.40;;;;;;4990925;28;20493;-43
2022/02/01 14:34:04;;;;;;;5.23;2.37;;;7.00;59.30;;;;;;4993866;28;20568;-43
2022/02/01 14:36:33;;;;;;;2.37;1.60;;;7.20;59.50;;;;;;4992706;28;20442;-43
2022/02/01 14:39:13;;;;;;;4.30;2.00;;;6.70;59.00;;;;;;4980336;28;20493;-43
2022/02/01 14:47:21;;;;;;;7.07;4.57;;;6.90;60.10;;;;;;4992687;28;20446;-44
2022/02/01 14:49:48;;;;;;;22.43;9.30;;;7.10;59.70;;;;;;4992106;28;20448;-43
2022/02/01 14:52:15;;;;;;;9.67;2.60;;;7.10;59.70;;;;;;5002071;28;20445;-43
2022/02/01 14:54:50;;;;;;;6.43;2.00;;;7.10;60.10;;;;;;4990867;28;20429;-44
2022/02/01 15:13:29;;;;;;;3.10;1.70;;;6.80;63.80;;;;;;4987549;28;20948;-45
2022/02/01 15:15:55;;;;;;;3.53;1.90;;;6.80;64.40;;;;;;4993474;28;20443;-45
2022/02/01 15:18:21;;;;;;;2.60;2.40;;;6.80;64.20;;;;;;4981070;28;20484;-45
2022/02/01 15:20:47;;;;;;;2.33;1.80;;;6.70;64.40;;;;;;4991342;28;20215;-45
2022/02/01 15:23:12;;;;;;;2.57;1.53;;;6.70;64.70;;;;;;4996648;28;20790;-46
2022/02/01 15:25:38;;;;;;;5.43;1.70;;;6.90;64.70;;;;;;4990544;28;20282;-45
2022/02/01 15:28:04;;;;;;;3.27;2.20;;;6.70;65.00;;;;;;4985806;28;20197;-45
2022/02/01 15:30:32;;;;;;;3.87;1.77;;;6.60;64.60;;;;;;4988689;28;20445;-45
2022/02/01 15:32:57;;;;;;;3.13;1.47;;;6.60;65.10;;;;;;4990371;28;20492;-45